Buoy 21539

sailwx.info

Track history (hours):
 
Tides and Currents Weather Stations Pressure Air Temp Water Temp Dewpoint Dewpoint Depression Visibility Wind Speed Wind Dir Waves Ship Positions

Drifting buoy 21539

Last reported at 2016-May-03 14:10 UTC. Time now 2016-May-03 18:13 UTC.
Position N 47°18' W 143°13'.

Barometer 1019.6 mb
Water temperature 8.3 ° C

Date/timePositionNaut miles runAvg speedWind from/ knotsBaromVisibWave heightAir tempDewpointWater temp
2016-May-03 14:10N 47°18' W 143°13'0 0.0 1019.6 8.3
2016-May-03 13:10N 47°18' W 143°13'0 0.2 1019.9 8.3
2016-May-03 11:10N 47°18' W 143°14'1 0.4 1020.6 8.3
2016-May-03 08:10N 47°17' W 143°13'1 1.0 1021.5 8.3
2016-May-03 07:10N 47°17' W 143°14'0 0.2 1021.8 8.3
2016-May-03 06:10N 47°17' W 143°15'0 0.2 1021.7 8.4
2016-May-03 04:10N 47°17' W 143°14'1 0.7 1021.5 8.4
2016-May-03 03:10N 47°17' W 143°14'1 1.2 1021.5 8.5
2016-May-03 02:10N 47°18' W 143°14'1 0.3 1021.4 8.5
2016-May-02 23:10N 47°19' W 143°14'2 1.6 1021.3 8.5
2016-May-02 22:10N 47°21' W 143°15'0 0.0 1021.1 8.4
2016-May-02 21:10N 47°21' W 143°15'1 1.3 1021.0 8.4
2016-May-02 20:10N 47°21' W 143°17'1 0.3 1020.7 8.4
2016-May-02 18:10N 47°21' W 143°16'1 0.5 1019.9 8.3
2016-May-02 17:10N 47°21' W 143°17'0 0.1 1019.3 8.3
2016-May-02 16:10N 47°21' W 143°17'1 0.4 1018.4 8.3
2016-May-02 14:10N 47°21' W 143°16'2 1.9 1017.1 8.3
2016-May-02 13:10N 47°22' W 143°18'2 0.8 1016.8 8.3
2016-May-02 11:10N 47°23' W 143°20'0 0.0 1016.1 8.3
2016-May-02 07:10N 47°23' W 143°20'0 0.3 1015.0 8.0
2016-May-02 06:10N 47°23' W 143°21'1 0.7 1014.8 8.0
2016-May-02 05:10N 47°23' W 143°22'2 0.9 1014.2 8.1
2016-May-02 03:10N 47°23' W 143°24'1 0.8 1013.1 8.2
2016-May-02 02:10N 47°23' W 143°25'1 1.3 1012.8 8.1
2016-May-02 01:10N 47°23' W 143°27'2 0.6 1012.8 8.1
2016-May-01 21:10N 47°22' W 143°30'1 0.7 1012.8 8.0
2016-May-01 20:10N 47°22' W 143°31'1 0.9 1012.7 8.0
2016-May-01 19:10N 47°22' W 143°31'2 0.8 1012.4 7.9
2016-May-01 17:10N 47°22' W 143°33'1 0.4 1012.0 7.8
2016-May-01 15:10N 47°23' W 143°34'2 0.9 1012.0 7.6
2016-May-01 13:10N 47°21' W 143°34'2 1.1 1012.0 7.7
2016-May-01 11:10N 47°21' W 143°37'0 0.1 1012.2 7.7
2016-May-01 07:10N 47°21' W 143°37'2 0.6 1013.5 7.7
2016-May-01 04:10N 47°20' W 143°38'0 0.3 1013.4 7.8
2016-May-01 03:10N 47°20' W 143°38'0 0.1 1013.5 7.8
2016-May-01 02:10N 47°20' W 143°38'1 1.3 1013.6 7.8
2016-May-01 01:10N 47°19' W 143°36'2 1.5 1013.8 7.8
2016-May-01 00:10N 47°19' W 143°38'1 0.5 1013.5 7.8
2016-Apr-30 23:10N 47°20' W 143°39'0 0.0 1013.2 7.7
2016-Apr-30 22:10N 47°20' W 143°39'2 1.1 1013.7 7.7
2016-Apr-30 20:10N 47°20' W 143°42'1 1.3 1012.8 7.6
2016-Apr-30 19:10N 47°19' W 143°44'0 0.0 1012.1 7.6
2016-Apr-30 18:10N 47°19' W 143°44'1 0.5 1012.0 7.6
2016-Apr-30 17:10N 47°19' W 143°43'1 1.2 1010.7 7.6
2016-Apr-30 16:10N 47°19' W 143°45'1 1.0 1010.4 7.6
2016-Apr-30 15:10N 47°18' W 143°46'1 0.7 1009.5 7.7
2016-Apr-30 14:10N 47°18' W 143°45'0 0.0 1009.5 7.7
2016-Apr-30 13:10N 47°18' W 143°45'3 0.4 1009.0 7.7
2016-Apr-30 05:10N 47°17' W 143°49'1 0.8 1008.8 7.8
2016-Apr-30 04:10N 47°18' W 143°50'4 2.1 1008.6 7.9
2016-Apr-30 02:10N 47°15' W 143°55'0 0.0 1008.9 7.9
2016-Apr-30 01:10N 47°15' W 143°55'0 0.0 1009.6 7.9
2016-Apr-29 23:10N 47°15' W 143°55'1 0.3 1010.5 7.9
2016-Apr-29 18:10N 47°13' W 143°55'0 0.0 1015.5 7.9
2016-Apr-29 17:10N 47°13' W 143°55'1 0.7 1016.6 7.8
2016-Apr-29 16:10N 47°13' W 143°54'0 0.1 1018.0 7.9
2016-Apr-29 15:10N 47°13' W 143°55'1 0.5 1018.8 7.9
2016-Apr-29 12:10N 47°13' W 143°57'2 0.3 1020.9 7.9
2016-Apr-29 07:10N 47°12' W 143°59'0 0.0 1022.8 7.9
2016-Apr-29 06:10N 47°12' W 143°59'1 0.6 1022.8 7.9
2016-Apr-29 05:10N 47°12' W 143°58'1 0.5 1022.2 7.9
2016-Apr-29 03:10N 47°11' W 143°58'0 0.0 1021.6 7.9
2016-Apr-29 02:10N 47°11' W 143°58'3 1.0 1021.4 8.0
2016-Apr-28 23:10N 47°13' W 144°02'1 0.8 1021.3 7.9
2016-Apr-28 22:10N 47°13' W 144°00'3 1.1 1021.1 7.9
2016-Apr-28 19:10N 47°13' W 144°05'0 0.0 1020.6 7.8
2016-Apr-28 18:10N 47°13' W 144°05'1 0.3 1020.0 7.8
2016-Apr-28 15:10N 47°12' W 144°06'0 0.0 1018.2 7.8
2016-Apr-28 14:10N 47°12' W 144°06'0 0.4 1017.9 7.8
2016-Apr-28 13:10N 47°12' W 144°05'0 0.3 1017.6 7.8
2016-Apr-28 12:10N 47°13' W 144°05'0 0.0 1017.2 7.8
2016-Apr-28 08:10N 47°12' W 144°04'3 0.9 1015.8 7.8
2016-Apr-28 05:10N 47°15' W 144°06'1 1.3 1013.5 7.8
2016-Apr-28 04:10N 47°15' W 144°08'0 0.3 1012.6 7.8
2016-Apr-28 03:10N 47°15' W 144°07'2 1.9 1011.9 7.8
2016-Apr-28 02:10N 47°14' W 144°10'1 0.5 1011.4 7.9
2016-Apr-28 01:10N 47°15' W 144°10'1 0.1 1010.8 7.9
2016-Apr-27 17:10N 47°14' W 144°10'0 0.0 1012.5 7.8
2016-Apr-27 16:10N 47°14' W 144°10'0 0.4 1013.4 7.8
2016-Apr-27 15:10N 47°14' W 144°09'0 0.4 1013.8 7.8
2016-Apr-27 14:10N 47°14' W 144°10'1 1.0 1014.6 7.8
2016-Apr-27 13:10N 47°15' W 144°11'1 0.6 1015.1 7.8
2016-Apr-27 12:10N 47°15' W 144°10'0 0.0 1015.5 7.8
2016-Apr-27 11:10N 47°15' W 144°10'1 0.4 1016.1 7.8
2016-Apr-27 07:10N 47°14' W 144°12'0 0.4 1017.6 7.8
2016-Apr-27 06:10N 47°14' W 144°12'0 0.5 1017.9 7.8
2016-Apr-27 05:10N 47°14' W 144°12'0 0.5 1017.1 7.8
2016-Apr-27 04:10N 47°15' W 144°12'1 1.3 1016.8 7.8
2016-Apr-27 03:10N 47°16' W 144°11'0 0.1 1016.2 7.9
2016-Apr-27 01:10N 47°16' W 144°11'1 1.4 1014.7 7.9
2016-Apr-27 00:10N 47°16' W 144°13'1 1.3 1014.2 7.9
2016-Apr-26 23:10N 47°17' W 144°14'0 0.0 1013.4 7.9
2016-Apr-26 22:10N 47°17' W 144°14'3 1.6 1012.5 7.9
2016-Apr-26 20:10N 47°18' W 144°18'0 0.0 1011.1 7.8
2016-Apr-26 17:10N 47°18' W 144°18'1 0.6 1008.8 7.8
2016-Apr-26 16:10N 47°18' W 144°19'0 0.4 1008.4 7.8
2016-Apr-26 15:10N 47°18' W 144°19'1 0.8 1007.9 7.8
2016-Apr-26 14:10N 47°17' W 144°20'1 0.9 1007.5 7.8
2016-Apr-26 13:10N 47°17' W 144°19'0 0.4 1007.3 7.8
2016-Apr-26 12:10N 47°17' W 144°20'0 0.0 1007.1 7.8
2016-Apr-26 07:10N 47°17' W 144°20'1 0.6 1007.8 7.9
2016-Apr-26 05:10N 47°18' W 144°21'3 1.4 1007.6 7.9
2016-Apr-26 03:10N 47°19' W 144°25'1 0.7 1007.2 8.0
2016-Apr-26 02:10N 47°18' W 144°26'0 0.0 1007.4 8.0
2016-Apr-26 01:10N 47°18' W 144°26'3 2.6 1007.7 8.0
2016-Apr-26 00:10N 47°16' W 144°28'0 0.1 1008.1 8.0
2016-Apr-25 22:10N 47°16' W 144°28'1 0.3 1007.7 7.9
2016-Apr-25 19:10N 47°17' W 144°28'0 0.0 1007.1 7.8
2016-Apr-25 17:10N 47°17' W 144°28'1 0.4 1006.3 7.8
2016-Apr-25 15:10N 47°18' W 144°27'3 2.6 1005.2 7.8
2016-Apr-25 14:10N 47°19' W 144°31'0 0.0 1004.3 7.8
2016-Apr-25 13:10N 47°19' W 144°31'0 0.0 1003.8 7.8
2016-Apr-25 12:10N 47°19' W 144°31'0 0.0 1003.2 7.8
2016-Apr-25 10:10N 47°19' W 144°31'3 0.7 1002.8 7.8
2016-Apr-25 06:10N 47°17' W 144°33'1 0.9 1005.0 7.8
2016-Apr-25 05:10N 47°16' W 144°34'1 1.1 1005.3 7.8
2016-Apr-25 04:10N 47°15' W 144°34'1 1.0 1006.7 7.8
2016-Apr-25 03:10N 47°14' W 144°35'1 0.6 1008.5 7.8
2016-Apr-25 02:10N 47°14' W 144°36'2 1.0 1010.4 7.8
2016-Apr-25 00:10N 47°12' W 144°33'2 1.7 1014.3 7.8
2016-Apr-24 23:10N 47°12' W 144°36'2 0.5 1015.7 7.9
2016-Apr-24 19:10N 47°10' W 144°38'1 0.6 1020.9 7.8
2016-Apr-24 17:10N 47°09' W 144°38'1 0.5 1022.1 7.8
2016-Apr-24 16:10N 47°09' W 144°39'0 0.0 1022.4 7.8
2016-Apr-24 15:10N 47°09' W 144°39'1 1.0 1022.3 7.8
2016-Apr-24 14:10N 47°09' W 144°40'1 0.7 1022.2 7.8
2016-Apr-24 13:10N 47°09' W 144°41'1 0.9 1022.6 7.8
2016-Apr-24 12:10N 47°09' W 144°39'1 1.1 1022.7 7.8
2016-Apr-24 11:10N 47°10' W 144°40'0 0.0 1023.0 7.8
2016-Apr-24 10:10N 47°10' W 144°40'0 0.0 1023.3 7.8
2016-Apr-24 07:10N 47°10' W 144°40'2 2.0 1023.1 7.8
2016-Apr-24 06:10N 47°09' W 144°43'2 1.0 1022.9 7.7
2016-Apr-24 04:10N 47°10' W 144°45'1 0.7 1021.7 7.8
2016-Apr-24 03:10N 47°09' W 144°46'1 1.3 1021.0 7.8
2016-Apr-24 02:10N 47°09' W 144°48'1 0.6 1020.4 7.8
2016-Apr-24 01:10N 47°08' W 144°49'1 0.7 1020.1 7.7
2016-Apr-23 23:10N 47°08' W 144°47'2 0.9 1019.4 7.7
2016-Apr-23 21:10N 47°07' W 144°49'4 1.0 1018.5 7.7
2016-Apr-23 17:10N 47°09' W 144°55'1 1.4 1015.5 7.7
2016-Apr-23 16:10N 47°09' W 144°57'0 0.2 1014.7 7.7
2016-Apr-23 15:10N 47°09' W 144°56'1 1.2 1013.7 7.7
2016-Apr-23 14:10N 47°09' W 144°58'   1013.0 7.7
Track history (hours):
 
Tides and Currents Weather Stations Pressure Air Temp Water Temp Dewpoint Dewpoint Depression Visibility Wind Speed Wind Dir Waves Ship Positions

Drifting buoy 21539

Last reported at 2016-May-03 14:10 UTC. Time now 2016-May-03 18:13 UTC.
Position N 47°18' W 143°13'.

Barometer 1019.6 mb
Water temperature 8.3 ° C

Date/timePositionNaut miles runAvg speedWind from/ knotsBaromVisibWave heightAir tempDewpointWater temp
2016-May-03 14:10N 47°18' W 143°13'0 0.0 1019.6 8.3
2016-May-03 13:10N 47°18' W 143°13'0 0.2 1019.9 8.3
2016-May-03 11:10N 47°18' W 143°14'1 0.4 1020.6 8.3
2016-May-03 08:10N 47°17' W 143°13'1 1.0 1021.5 8.3
2016-May-03 07:10N 47°17' W 143°14'0 0.2 1021.8 8.3
2016-May-03 06:10N 47°17' W 143°15'0 0.2 1021.7 8.4
2016-May-03 04:10N 47°17' W 143°14'1 0.7 1021.5 8.4
2016-May-03 03:10N 47°17' W 143°14'1 1.2 1021.5 8.5
2016-May-03 02:10N 47°18' W 143°14'1 0.3 1021.4 8.5
2016-May-02 23:10N 47°19' W 143°14'2 1.6 1021.3 8.5
2016-May-02 22:10N 47°21' W 143°15'0 0.0 1021.1 8.4
2016-May-02 21:10N 47°21' W 143°15'1 1.3 1021.0 8.4
2016-May-02 20:10N 47°21' W 143°17'1 0.3 1020.7 8.4
2016-May-02 18:10N 47°21' W 143°16'1 0.5 1019.9 8.3
2016-May-02 17:10N 47°21' W 143°17'0 0.1 1019.3 8.3
2016-May-02 16:10N 47°21' W 143°17'1 0.4 1018.4 8.3
2016-May-02 14:10N 47°21' W 143°16'2 1.9 1017.1 8.3
2016-May-02 13:10N 47°22' W 143°18'2 0.8 1016.8 8.3
2016-May-02 11:10N 47°23' W 143°20'0 0.0 1016.1 8.3
2016-May-02 07:10N 47°23' W 143°20'0 0.3 1015.0 8.0
2016-May-02 06:10N 47°23' W 143°21'1 0.7 1014.8 8.0
2016-May-02 05:10N 47°23' W 143°22'2 0.9 1014.2 8.1
2016-May-02 03:10N 47°23' W 143°24'1 0.8 1013.1 8.2
2016-May-02 02:10N 47°23' W 143°25'1 1.3 1012.8 8.1
2016-May-02 01:10N 47°23' W 143°27'2 0.6 1012.8 8.1
2016-May-01 21:10N 47°22' W 143°30'1 0.7 1012.8 8.0
2016-May-01 20:10N 47°22' W 143°31'1 0.9 1012.7 8.0
2016-May-01 19:10N 47°22' W 143°31'2 0.8 1012.4 7.9
2016-May-01 17:10N 47°22' W 143°33'1 0.4 1012.0 7.8
2016-May-01 15:10N 47°23' W 143°34'2 0.9 1012.0 7.6
2016-May-01 13:10N 47°21' W 143°34'2 1.1 1012.0 7.7
2016-May-01 11:10N 47°21' W 143°37'0 0.1 1012.2 7.7
2016-May-01 07:10N 47°21' W 143°37'2 0.6 1013.5 7.7
2016-May-01 04:10N 47°20' W 143°38'0 0.3 1013.4 7.8
2016-May-01 03:10N 47°20' W 143°38'0 0.1 1013.5 7.8
2016-May-01 02:10N 47°20' W 143°38'1 1.3 1013.6 7.8
2016-May-01 01:10N 47°19' W 143°36'2 1.5 1013.8 7.8
2016-May-01 00:10N 47°19' W 143°38'1 0.5 1013.5 7.8
2016-Apr-30 23:10N 47°20' W 143°39'0 0.0 1013.2 7.7
2016-Apr-30 22:10N 47°20' W 143°39'2 1.1 1013.7 7.7
2016-Apr-30 20:10N 47°20' W 143°42'1 1.3 1012.8 7.6
2016-Apr-30 19:10N 47°19' W 143°44'0 0.0 1012.1 7.6
2016-Apr-30 18:10N 47°19' W 143°44'1 0.5 1012.0 7.6
2016-Apr-30 17:10N 47°19' W 143°43'1 1.2 1010.7 7.6
2016-Apr-30 16:10N 47°19' W 143°45'1 1.0 1010.4 7.6
2016-Apr-30 15:10N 47°18' W 143°46'1 0.7 1009.5 7.7
2016-Apr-30 14:10N 47°18' W 143°45'0 0.0 1009.5 7.7
2016-Apr-30 13:10N 47°18' W 143°45'3 0.4 1009.0 7.7
2016-Apr-30 05:10N 47°17' W 143°49'1 0.8 1008.8 7.8
2016-Apr-30 04:10N 47°18' W 143°50'4 2.1 1008.6 7.9
2016-Apr-30 02:10N 47°15' W 143°55'0 0.0 1008.9 7.9
2016-Apr-30 01:10N 47°15' W 143°55'0 0.0 1009.6 7.9
2016-Apr-29 23:10N 47°15' W 143°55'1 0.3 1010.5 7.9
2016-Apr-29 18:10N 47°13' W 143°55'0 0.0 1015.5 7.9
2016-Apr-29 17:10N 47°13' W 143°55'1 0.7 1016.6 7.8
2016-Apr-29 16:10N 47°13' W 143°54'0 0.1 1018.0 7.9
2016-Apr-29 15:10N 47°13' W 143°55'1 0.5 1018.8 7.9
2016-Apr-29 12:10N 47°13' W 143°57'2 0.3 1020.9 7.9
2016-Apr-29 07:10N 47°12' W 143°59'0 0.0 1022.8 7.9
2016-Apr-29 06:10N 47°12' W 143°59'1 0.6 1022.8 7.9
2016-Apr-29 05:10N 47°12' W 143°58'1 0.5 1022.2 7.9
2016-Apr-29 03:10N 47°11' W 143°58'0 0.0 1021.6 7.9
2016-Apr-29 02:10N 47°11' W 143°58'3 1.0 1021.4 8.0
2016-Apr-28 23:10N 47°13' W 144°02'1 0.8 1021.3 7.9
2016-Apr-28 22:10N 47°13' W 144°00'3 1.1 1021.1 7.9
2016-Apr-28 19:10N 47°13' W 144°05'0 0.0 1020.6 7.8
2016-Apr-28 18:10N 47°13' W 144°05'1 0.3 1020.0 7.8
2016-Apr-28 15:10N 47°12' W 144°06'0 0.0 1018.2 7.8
2016-Apr-28 14:10N 47°12' W 144°06'0 0.4 1017.9 7.8
2016-Apr-28 13:10N 47°12' W 144°05'0 0.3 1017.6 7.8
2016-Apr-28 12:10N 47°13' W 144°05'0 0.0 1017.2 7.8
2016-Apr-28 08:10N 47°12' W 144°04'3 0.9 1015.8 7.8
2016-Apr-28 05:10N 47°15' W 144°06'1 1.3 1013.5 7.8
2016-Apr-28 04:10N 47°15' W 144°08'0 0.3 1012.6 7.8
2016-Apr-28 03:10N 47°15' W 144°07'2 1.9 1011.9 7.8
2016-Apr-28 02:10N 47°14' W 144°10'1 0.5 1011.4 7.9
2016-Apr-28 01:10N 47°15' W 144°10'1 0.1 1010.8 7.9
2016-Apr-27 17:10N 47°14' W 144°10'0 0.0 1012.5 7.8
2016-Apr-27 16:10N 47°14' W 144°10'0 0.4 1013.4 7.8
2016-Apr-27 15:10N 47°14' W 144°09'0 0.4 1013.8 7.8
2016-Apr-27 14:10N 47°14' W 144°10'1 1.0 1014.6 7.8
2016-Apr-27 13:10N 47°15' W 144°11'1 0.6 1015.1 7.8
2016-Apr-27 12:10N 47°15' W 144°10'0 0.0 1015.5 7.8
2016-Apr-27 11:10N 47°15' W 144°10'1 0.4 1016.1 7.8
2016-Apr-27 07:10N 47°14' W 144°12'0 0.4 1017.6 7.8
2016-Apr-27 06:10N 47°14' W 144°12'0 0.5 1017.9 7.8
2016-Apr-27 05:10N 47°14' W 144°12'0 0.5 1017.1 7.8
2016-Apr-27 04:10N 47°15' W 144°12'1 1.3 1016.8 7.8
2016-Apr-27 03:10N 47°16' W 144°11'0 0.1 1016.2 7.9
2016-Apr-27 01:10N 47°16' W 144°11'1 1.4 1014.7 7.9
2016-Apr-27 00:10N 47°16' W 144°13'1 1.3 1014.2 7.9
2016-Apr-26 23:10N 47°17' W 144°14'0 0.0 1013.4 7.9
2016-Apr-26 22:10N 47°17' W 144°14'3 1.6 1012.5 7.9
2016-Apr-26 20:10N 47°18' W 144°18'0 0.0 1011.1 7.8
2016-Apr-26 17:10N 47°18' W 144°18'1 0.6 1008.8 7.8
2016-Apr-26 16:10N 47°18' W 144°19'0 0.4 1008.4 7.8
2016-Apr-26 15:10N 47°18' W 144°19'1 0.8 1007.9 7.8
2016-Apr-26 14:10N 47°17' W 144°20'1 0.9 1007.5 7.8
2016-Apr-26 13:10N 47°17' W 144°19'0 0.4 1007.3 7.8
2016-Apr-26 12:10N 47°17' W 144°20'0 0.0 1007.1 7.8
2016-Apr-26 07:10N 47°17' W 144°20'1 0.6 1007.8 7.9
2016-Apr-26 05:10N 47°18' W 144°21'3 1.4 1007.6 7.9
2016-Apr-26 03:10N 47°19' W 144°25'1 0.7 1007.2 8.0
2016-Apr-26 02:10N 47°18' W 144°26'0 0.0 1007.4 8.0
2016-Apr-26 01:10N 47°18' W 144°26'3 2.6 1007.7 8.0
2016-Apr-26 00:10N 47°16' W 144°28'0 0.1 1008.1 8.0
2016-Apr-25 22:10N 47°16' W 144°28'1 0.3 1007.7 7.9
2016-Apr-25 19:10N 47°17' W 144°28'0 0.0 1007.1 7.8
2016-Apr-25 17:10N 47°17' W 144°28'1 0.4 1006.3 7.8
2016-Apr-25 15:10N 47°18' W 144°27'3 2.6 1005.2 7.8
2016-Apr-25 14:10N 47°19' W 144°31'0 0.0 1004.3 7.8
2016-Apr-25 13:10N 47°19' W 144°31'0 0.0 1003.8 7.8
2016-Apr-25 12:10N 47°19' W 144°31'0 0.0 1003.2 7.8
2016-Apr-25 10:10N 47°19' W 144°31'3 0.7 1002.8 7.8
2016-Apr-25 06:10N 47°17' W 144°33'1 0.9 1005.0 7.8
2016-Apr-25 05:10N 47°16' W 144°34'1 1.1 1005.3 7.8
2016-Apr-25 04:10N 47°15' W 144°34'1 1.0 1006.7 7.8
2016-Apr-25 03:10N 47°14' W 144°35'1 0.6 1008.5 7.8
2016-Apr-25 02:10N 47°14' W 144°36'2 1.0 1010.4 7.8
2016-Apr-25 00:10N 47°12' W 144°33'2 1.7 1014.3 7.8
2016-Apr-24 23:10N 47°12' W 144°36'2 0.5 1015.7 7.9
2016-Apr-24 19:10N 47°10' W 144°38'1 0.6 1020.9 7.8
2016-Apr-24 17:10N 47°09' W 144°38'1 0.5 1022.1 7.8
2016-Apr-24 16:10N 47°09' W 144°39'0 0.0 1022.4 7.8
2016-Apr-24 15:10N 47°09' W 144°39'1 1.0 1022.3 7.8
2016-Apr-24 14:10N 47°09' W 144°40'1 0.7 1022.2 7.8
2016-Apr-24 13:10N 47°09' W 144°41'1 0.9 1022.6 7.8
2016-Apr-24 12:10N 47°09' W 144°39'1 1.1 1022.7 7.8
2016-Apr-24 11:10N 47°10' W 144°40'0 0.0 1023.0 7.8
2016-Apr-24 10:10N 47°10' W 144°40'0 0.0 1023.3 7.8
2016-Apr-24 07:10N 47°10' W 144°40'2 2.0 1023.1 7.8
2016-Apr-24 06:10N 47°09' W 144°43'2 1.0 1022.9 7.7
2016-Apr-24 04:10N 47°10' W 144°45'1 0.7 1021.7 7.8
2016-Apr-24 03:10N 47°09' W 144°46'1 1.3 1021.0 7.8
2016-Apr-24 02:10N 47°09' W 144°48'1 0.6 1020.4 7.8
2016-Apr-24 01:10N 47°08' W 144°49'1 0.7 1020.1 7.7
2016-Apr-23 23:10N 47°08' W 144°47'2 0.9 1019.4 7.7
2016-Apr-23 21:10N 47°07' W 144°49'4 1.0 1018.5 7.7
2016-Apr-23 17:10N 47°09' W 144°55'1 1.4 1015.5 7.7
2016-Apr-23 16:10N 47°09' W 144°57'0 0.2 1014.7 7.7
2016-Apr-23 15:10N 47°09' W 144°56'1 1.2 1013.7 7.7
2016-Apr-23 14:10N 47°09' W 144°58'   1013.0 7.7

Dump ship's entire track history